Česky Dansk Deutsch English Español Suomi Français Magyar Italiano Nederlands norsk Polski Português svenska Türkçe

 

Het Weer

Tokat (Turkije)

12:50, 17 août 2016 (GMT)

NWNNE
WE
SWSSE
Home            
Tokat Sivas Merzifon Samsun / Carsamba Samsun Kayseri / Erkilet Nevsehir Malatya / Erhac Erzincan Trabzon Elazig Ankara / Esenboga Ankara / Guvercin Lik Ankara / Etimesgut Murted Tur-Afb Gaziantep Adana / Incirlik Adana / Sakirpasa Urfa Erzurum Diyarbakir Iskenderun Zonguldak

Om een weerknop op uw website of weblog te plaatsen, copieer onderstaande code en plak die in uw pagina. In het eerste vakje staat HTML-code, in het tweede vakje UBB-code.


Add to Google

Details

Wind speed:3 bf, 8 kn, 4.1 m/s, 9.2 miles/h, 14.8 km/h
Wind direction:ENE, 070°
Näkyvyys:Supérieure à 10000 m, 10 km, 32800 ft, 6.2 miles
Clouds:5 à 7/8è at 3500 ft, 1067 m
5 à 7/8è at 10000 ft, 3048 m
Température:26°C, 79°F
Température ressentie:27°C, 81°F
Point de rosée:17°C, 63°F
Pression atmosphérique:1011 hPa, 758.3 mmHg, 29.85 inHg, 0.998 atm
Humidité relative:57.6 %
METAR:LTAW 171250Z 07008KT 9999 BKN035 BKN100 26/17 Q1011

Snelkoppelingen

Actuele weersinformatie van de hele wereld. Voeg locaties toe met het plus (+) symbool. Deze snelkoppelingen kunnen worden toegevoegd aan Google.

Lid van de Technetium groep

website free tracking
StatCounter NetStat W3C Validator

19-08-2022 09:08:17
astro.technetium.be money.technetium.be phote.technetium.be tafeltennistafel.technetium.be www.ligfiets.net